Time;durP1;ratioP1;P1;durP2;ratioP2;P2;SDS_P1;SDS_P2;PMS_P1;PMS_P2;Temp;Humidity;BMP_temperature;BMP_pressure;BME280_temperature;BME280_humidity;BME280_pressure;Samples;Min_cycle;Max_cycle;Signal;HPM_P1;HPM_P2
2021/01/23 00:02:03;;;;;;;0.50;0.50;;;3.40;99.90;;;;;;4954018;29;20088;-80
2021/01/23 00:04:28;;;;;;;2.28;0.80;;;3.40;99.90;;;;;;4954063;29;20034;-78
2021/01/23 00:06:54;;;;;;;0.93;0.90;;;3.40;99.90;;;;;;4954027;29;20118;-79
2021/01/23 00:09:20;;;;;;;1.05;0.95;;;3.50;99.90;;;;;;4954334;29;20027;-79
2021/01/23 00:11:45;;;;;;;0.77;0.65;;;3.50;99.90;;;;;;4955237;28;20054;-79
2021/01/23 00:14:11;;;;;;;1.50;1.30;;;3.50;99.90;;;;;;4955248;28;20086;-79
2021/01/23 00:16:37;;;;;;;1.75;1.23;;;3.50;99.90;;;;;;4953987;29;20114;-79
2021/01/23 00:19:02;;;;;;;2.58;1.77;;;3.50;99.90;;;;;;4953772;29;20034;-80
2021/01/23 00:21:28;;;;;;;4.93;2.75;;;3.60;99.90;;;;;;4953938;29;20055;-79
2021/01/23 00:23:53;;;;;;;8.73;3.78;;;3.40;99.90;;;;;;4953861;29;20030;-80
2021/01/23 00:26:19;;;;;;;9.02;4.40;;;3.30;99.90;;;;;;4953892;29;20026;-81
2021/01/23 00:28:45;;;;;;;6.32;2.72;;;3.30;99.90;;;;;;4956791;28;20038;-80
2021/01/23 00:31:12;;;;;;;3.67;1.95;;;3.30;99.90;;;;;;4957552;29;20028;-80
2021/01/23 00:33:38;;;;;;;3.63;2.00;;;3.20;99.90;;;;;;4958835;28;20041;-80
2021/01/23 00:36:04;;;;;;;3.85;2.05;;;3.20;99.90;;;;;;4957509;28;20043;-80
2021/01/23 00:38:30;;;;;;;6.47;3.08;;;3.20;99.90;;;;;;4957390;29;20439;-80
2021/01/23 00:40:56;;;;;;;2.38;1.45;;;3.20;99.90;;;;;;4958688;28;20019;-80
2021/01/23 00:43:21;;;;;;;3.13;1.90;;;3.10;99.90;;;;;;4957308;29;20036;-80
2021/01/23 00:45:47;;;;;;;0.80;0.80;;;3.20;99.90;;;;;;4957278;29;20027;-80
2021/01/23 00:48:13;;;;;;;1.55;1.10;;;3.20;99.90;;;;;;4957159;29;20062;-80
2021/01/23 00:50:39;;;;;;;1.00;0.75;;;3.20;99.90;;;;;;4957247;29;20487;-80
2021/01/23 00:53:05;;;;;;;1.23;0.93;;;3.10;99.90;;;;;;4958277;28;20034;-81
2021/01/23 00:55:31;;;;;;;0.95;0.85;;;3.10;99.90;;;;;;4958395;28;20027;-81
2021/01/23 00:57:57;;;;;;;1.10;0.98;;;3.10;99.90;;;;;;4958312;28;20418;-80
2021/01/23 01:00:24;;;;;;;1.42;1.20;;;3.20;99.90;;;;;;4957079;29;20471;-80
2021/01/23 01:02:50;;;;;;;1.50;1.23;;;3.20;99.90;;;;;;4958271;28;20110;-79
2021/01/23 01:05:16;;;;;;;1.08;0.90;;;3.20;99.90;;;;;;4958242;28;20068;-80
2021/01/23 01:07:42;;;;;;;1.33;1.05;;;3.30;99.90;;;;;;4958428;28;20162;-79
2021/01/23 01:10:09;;;;;;;0.85;0.80;;;3.30;99.90;;;;;;4956584;29;20050;-79
2021/01/23 01:12:35;;;;;;;1.40;0.90;;;3.30;99.90;;;;;;4958114;28;20038;-79
2021/01/23 01:15:01;;;;;;;1.20;0.90;;;3.20;99.90;;;;;;4958374;28;20395;-78
2021/01/23 01:17:26;;;;;;;1.10;0.80;;;3.30;99.90;;;;;;4956729;29;20058;-79
2021/01/23 01:19:52;;;;;;;1.10;0.90;;;3.40;99.90;;;;;;4956675;29;20423;-79
2021/01/23 01:22:18;;;;;;;1.13;1.00;;;3.50;99.90;;;;;;4956673;29;20019;-79
2021/01/23 01:24:43;;;;;;;1.05;0.80;;;3.30;99.90;;;;;;4956652;29;20091;-79
2021/01/23 01:27:09;;;;;;;0.70;0.70;;;3.40;99.90;;;;;;4957007;29;20114;-79
2021/01/23 01:29:35;;;;;;;0.88;0.70;;;3.30;99.90;;;;;;4957800;28;20047;-80
2021/01/23 01:32:00;;;;;;;1.20;0.90;;;3.40;99.90;;;;;;4957784;28;20089;-79
2021/01/23 01:34:26;;;;;;;1.17;0.93;;;3.40;99.90;;;;;;4957684;28;20055;-79
2021/01/23 01:36:52;;;;;;;1.27;0.85;;;3.40;99.90;;;;;;4956325;28;20054;-79
2021/01/23 01:39:17;;;;;;;0.98;0.70;;;3.40;99.90;;;;;;4955189;28;20062;-80
2021/01/23 01:41:43;;;;;;;2.53;0.90;;;3.50;99.90;;;;;;4956317;29;20024;-79
2021/01/23 01:44:10;;;;;;;1.10;1.00;;;3.40;99.90;;;;;;4956264;29;20024;-79
2021/01/23 01:46:36;;;;;;;1.00;0.90;;;3.40;99.90;;;;;;4956061;29;20047;-79
2021/01/23 01:49:04;;;;;;;1.67;1.00;;;3.40;99.90;;;;;;4957405;29;20030;-79
2021/01/23 01:51:29;;;;;;;1.00;0.93;;;3.40;99.90;;;;;;4956145;29;20078;-79
2021/01/23 01:53:56;;;;;;;1.40;1.00;;;3.30;99.90;;;;;;4956121;29;20031;-79
2021/01/23 01:56:21;;;;;;;0.85;0.80;;;3.20;99.90;;;;;;4956070;29;20110;-79
2021/01/23 01:58:47;;;;;;;1.15;0.90;;;3.30;99.90;;;;;;4957060;28;20028;-78
2021/01/23 02:01:13;;;;;;;1.10;0.90;;;3.40;99.90;;;;;;4955581;29;20027;-78
2021/01/23 02:03:57;;;;;;;1.00;0.73;;;3.40;99.90;;;;;;4955907;29;20078;-78
2021/01/23 02:06:44;;;;;;;1.10;0.70;;;3.50;99.90;;;;;;4955966;29;20031;-78
2021/01/23 02:09:25;;;;;;;0.90;0.90;;;3.50;99.90;;;;;;4956128;29;20031;-79
2021/01/23 02:12:15;;;;;;;1.30;1.10;;;3.50;99.90;;;;;;4955755;29;20046;-79
2021/01/23 02:15:09;;;;;;;0.85;0.85;;;3.60;99.90;;;;;;4955787;29;20209;-79
2021/01/23 02:17:47;;;;;;;1.10;0.80;;;3.60;99.90;;;;;;4955567;29;20391;-79
2021/01/23 02:20:34;;;;;;;1.63;1.02;;;3.50;99.90;;;;;;4955624;29;20019;-78
2021/01/23 02:23:38;;;;;;;1.77;1.13;;;3.60;99.90;;;;;;4955564;29;20518;-79
2021/01/23 02:26:18;;;;;;;1.05;0.85;;;3.60;99.90;;;;;;4953828;29;20483;-78
2021/01/23 02:28:55;;;;;;;1.30;1.00;;;3.60;99.90;;;;;;4957044;28;20030;-79
2021/01/23 02:31:25;;;;;;;0.88;0.70;;;3.50;99.90;;;;;;4955422;29;20391;-79
2021/01/23 02:33:53;;;;;;;0.80;0.80;;;3.50;99.90;;;;;;4955380;29;20069;-79
2021/01/23 02:36:21;;;;;;;2.35;0.63;;;3.50;99.90;;;;;;4955228;28;20023;-79
2021/01/23 02:38:48;;;;;;;0.90;0.90;;;3.60;99.90;;;;;;4955198;29;20118;-79
2021/01/23 02:41:15;;;;;;;0.70;0.70;;;3.60;99.90;;;;;;4956802;28;20047;-79
2021/01/23 02:43:47;;;;;;;1.10;0.90;;;3.50;99.90;;;;;;4955146;29;20023;-79
2021/01/23 02:46:18;;;;;;;0.80;0.80;;;3.50;99.90;;;;;;4954938;29;20030;-79
2021/01/23 02:48:44;;;;;;;0.93;0.80;;;3.50;99.90;;;;;;4955084;29;20031;-79
2021/01/23 02:51:40;;;;;;;1.55;0.80;;;3.50;99.90;;;;;;4956054;28;20151;-80
2021/01/23 02:54:14;;;;;;;1.08;0.80;;;3.50;99.90;;;;;;4955029;29;20023;-80
2021/01/23 02:56:42;;;;;;;0.77;0.77;;;3.50;99.90;;;;;;4956290;28;20042;-80
2021/01/23 02:59:10;;;;;;;3.05;0.70;;;3.50;99.90;;;;;;4954827;29;20034;-80
2021/01/23 03:01:42;;;;;;;1.27;0.90;;;3.50;99.90;;;;;;4954889;29;20024;-80
2021/01/23 03:04:09;;;;;;;1.33;0.88;;;3.40;99.90;;;;;;4956133;28;20028;-80
2021/01/23 03:06:37;;;;;;;0.65;0.65;;;3.40;99.90;;;;;;4954849;29;20074;-80
2021/01/23 03:09:23;;;;;;;0.80;0.80;;;3.40;99.90;;;;;;4956226;28;20058;-81
2021/01/23 03:11:50;;;;;;;0.75;0.57;;;3.50;99.90;;;;;;4954693;29;20039;-80
2021/01/23 03:14:16;;;;;;;0.93;0.80;;;3.50;99.90;;;;;;4954691;29;20067;-80
2021/01/23 03:16:52;;;;;;;0.80;0.80;;;3.50;99.90;;;;;;4956240;28;20121;-80
2021/01/23 03:19:19;;;;;;;1.00;0.70;;;3.50;99.90;;;;;;4955887;28;20480;-80
2021/01/23 03:21:49;;;;;;;0.60;0.60;;;3.60;99.90;;;;;;4954597;29;20015;-80
2021/01/23 03:24:15;;;;;;;0.70;0.70;;;3.50;99.90;;;;;;4954540;29;20459;-80
2021/01/23 03:26:41;;;;;;;1.38;0.85;;;3.50;99.90;;;;;;4954549;29;20544;-80
2021/01/23 03:29:07;;;;;;;1.40;0.80;;;3.50;99.90;;;;;;4954491;29;20027;-80
2021/01/23 03:31:34;;;;;;;1.20;0.88;;;3.60;99.90;;;;;;4954447;29;20118;-80
2021/01/23 03:33:59;;;;;;;1.27;0.80;;;3.60;99.90;;;;;;4954424;29;20053;-80
2021/01/23 03:36:25;;;;;;;0.70;0.60;;;3.50;99.90;;;;;;4955556;28;20515;-81
2021/01/23 03:38:52;;;;;;;1.02;0.80;;;3.50;99.90;;;;;;4955537;28;20391;-80
2021/01/23 03:41:18;;;;;;;1.90;0.90;;;3.50;99.90;;;;;;4954289;29;20020;-81
2021/01/23 03:43:44;;;;;;;0.70;0.70;;;3.40;99.90;;;;;;4954279;29;20027;-81
2021/01/23 03:46:10;;;;;;;0.70;0.70;;;3.30;99.90;;;;;;4954050;29;20026;-81
2021/01/23 03:48:36;;;;;;;1.20;0.95;;;3.30;99.90;;;;;;4954259;29;20031;-81
2021/01/23 03:51:01;;;;;;;1.40;0.90;;;3.20;99.90;;;;;;4954231;29;20031;-81
2021/01/23 03:53:27;;;;;;;0.80;0.80;;;3.40;99.90;;;;;;4955437;28;20106;-81
2021/01/23 03:55:53;;;;;;;1.02;0.93;;;3.30;99.90;;;;;;4954172;29;20058;-81
2021/01/23 03:58:19;;;;;;;1.48;0.80;;;3.40;99.90;;;;;;4954080;29;20027;-80
2021/01/23 04:00:45;;;;;;;1.10;0.90;;;3.40;99.90;;;;;;4954204;29;20111;-80
2021/01/23 04:03:11;;;;;;;1.85;0.93;;;3.40;99.90;;;;;;4956081;28;20387;-80
2021/01/23 04:05:37;;;;;;;2.15;0.95;;;3.20;99.90;;;;;;4959351;28;20019;-81
2021/01/23 04:08:03;;;;;;;1.13;1.02;;;3.10;99.90;;;;;;4958030;29;20031;-80
2021/01/23 04:10:29;;;;;;;1.02;0.80;;;3.10;99.90;;;;;;4959142;28;20502;-80
2021/01/23 04:12:56;;;;;;;120.82;24.25;;;3.30;99.90;;;;;;4959202;28;20043;-80
2021/01/23 04:15:23;;;;;;;4.90;2.03;;;3.40;99.90;;;;;;4959132;28;20493;-80
2021/01/23 04:17:49;;;;;;;2.35;1.30;;;3.40;99.90;;;;;;4959020;28;20030;-80
2021/01/23 04:20:14;;;;;;;5.20;1.92;;;3.50;99.90;;;;;;4957822;29;20030;-80
2021/01/23 04:22:40;;;;;;;3.45;1.50;;;3.50;99.90;;;;;;4957777;29;20384;-80
2021/01/23 04:25:06;;;;;;;3.60;1.40;;;3.50;99.90;;;;;;4957694;29;20023;-80
2021/01/23 04:27:32;;;;;;;5.07;1.67;;;3.40;99.90;;;;;;4959134;28;20039;-80
2021/01/23 04:29:58;;;;;;;3.50;1.48;;;3.50;99.90;;;;;;4957636;29;20118;-80
2021/01/23 04:32:24;;;;;;;4.05;1.52;;;3.30;99.90;;;;;;4957593;29;20453;-80
2021/01/23 04:34:50;;;;;;;3.70;1.60;;;3.20;99.90;;;;;;4958824;28;20395;-80
2021/01/23 04:37:15;;;;;;;4.35;1.60;;;3.40;99.90;;;;;;4957357;28;20027;-80
2021/01/23 04:39:41;;;;;;;2.58;1.40;;;3.50;99.90;;;;;;4957530;29;20426;-80
2021/01/23 04:42:08;;;;;;;3.17;1.10;;;3.40;99.90;;;;;;4957451;29;20024;-79
2021/01/23 04:44:34;;;;;;;2.80;1.17;;;3.40;99.90;;;;;;4957437;29;20023;-80
2021/01/23 04:47:02;;;;;;;4.18;1.50;;;3.40;99.90;;;;;;4957148;29;20047;-80
2021/01/23 04:49:30;;;;;;;2.75;1.35;;;3.30;99.90;;;;;;4957279;29;20074;-80
2021/01/23 04:51:55;;;;;;;2.85;1.40;;;3.40;99.90;;;;;;4957286;29;20027;-81
2021/01/23 04:54:21;;;;;;;3.40;1.40;;;3.40;99.90;;;;;;4957159;29;20122;-80
2021/01/23 04:56:49;;;;;;;3.00;1.50;;;3.40;99.90;;;;;;4957128;29;20031;-80
2021/01/23 04:59:14;;;;;;;1.95;1.30;;;3.30;99.90;;;;;;4957080;29;20487;-79
2021/01/23 05:01:40;;;;;;;3.53;1.65;;;3.20;99.90;;;;;;4958272;28;20033;-80
2021/01/23 05:04:06;;;;;;;1.92;1.20;;;3.20;99.90;;;;;;4958238;28;20102;-80
2021/01/23 05:06:31;;;;;;;2.60;1.48;;;3.30;99.90;;;;;;4956972;29;20055;-79
2021/01/23 05:08:58;;;;;;;3.80;1.55;;;3.30;99.90;;;;;;4956940;29;20062;-79
2021/01/23 05:11:45;;;;;;;3.67;1.70;;;3.40;99.90;;;;;;4956895;29;20031;-79
2021/01/23 05:14:15;;;;;;;2.92;1.58;;;3.30;99.90;;;;;;4956729;28;20079;-79
2021/01/23 05:16:41;;;;;;;3.08;1.67;;;3.30;99.90;;;;;;4956805;29;20027;-80
2021/01/23 05:19:08;;;;;;;4.32;2.47;;;3.30;99.90;;;;;;4956681;29;20031;-80
2021/01/23 05:21:34;;;;;;;4.65;2.10;;;3.00;99.90;;;;;;4956750;29;20055;-80
2021/01/23 05:24:08;;;;;;;2.60;1.73;;;3.00;99.90;;;;;;4956647;29;20034;-79
2021/01/23 05:26:34;;;;;;;2.57;1.63;;;3.10;99.90;;;;;;4956639;29;20427;-79
2021/01/23 05:29:13;;;;;;;4.00;1.40;;;3.10;99.90;;;;;;4956599;29;20383;-79
2021/01/23 05:31:39;;;;;;;1.83;1.30;;;3.10;99.90;;;;;;4956562;29;20027;-79
2021/01/23 05:34:27;;;;;;;1.92;1.40;;;3.10;99.90;;;;;;4956495;29;20134;-79
2021/01/23 05:36:55;;;;;;;2.28;1.33;;;3.20;99.90;;;;;;4956389;28;20023;-79
2021/01/23 05:39:21;;;;;;;2.67;1.75;;;3.30;99.90;;;;;;4956329;29;20039;-79
2021/01/23 05:42:05;;;;;;;2.95;1.50;;;3.30;99.90;;;;;;4956340;29;20027;-78
2021/01/23 05:44:31;;;;;;;3.30;1.90;;;3.20;99.90;;;;;;4956252;29;20035;-78
2021/01/23 05:46:57;;;;;;;2.33;1.60;;;3.30;99.90;;;;;;4956022;29;20135;-78
2021/01/23 05:49:22;;;;;;;2.45;1.67;;;3.20;99.90;;;;;;4957685;28;20039;-78
2021/01/23 05:51:48;;;;;;;2.33;1.40;;;3.20;99.90;;;;;;4956165;29;20158;-79
2021/01/23 05:54:14;;;;;;;2.17;1.50;;;3.10;99.90;;;;;;4957638;28;20030;-78
2021/01/23 05:56:41;;;;;;;2.55;1.50;;;3.20;99.90;;;;;;4956110;29;20031;-78
2021/01/23 05:59:07;;;;;;;2.17;1.80;;;3.30;99.90;;;;;;4957254;28;20031;-78
2021/01/23 06:01:34;;;;;;;5.07;1.70;;;3.30;99.90;;;;;;4955971;29;20027;-78
2021/01/23 06:04:01;;;;;;;2.90;1.40;;;3.30;99.90;;;;;;4955940;29;20054;-78
2021/01/23 06:06:46;;;;;;;2.30;1.42;;;3.20;99.90;;;;;;4955841;29;20037;-78
2021/01/23 06:09:36;;;;;;;1.80;1.40;;;3.20;99.90;;;;;;4957140;28;20110;-78
2021/01/23 06:12:02;;;;;;;3.42;1.90;;;3.30;99.90;;;;;;4949949;28;20046;-79
2021/01/23 06:14:36;;;;;;;3.00;2.05;;;3.20;99.90;;;;;;4955803;29;20027;-78
2021/01/23 06:17:02;;;;;;;5.88;3.05;;;3.10;99.90;;;;;;4956950;28;20035;-78
2021/01/23 06:19:27;;;;;;;11.20;4.18;;;3.20;99.90;;;;;;4955576;29;20042;-79
2021/01/23 06:21:53;;;;;;;4.55;2.53;;;3.00;99.90;;;;;;4957116;28;20023;-78
2021/01/23 06:24:42;;;;;;;4.97;2.40;;;3.10;99.90;;;;;;4956805;28;20025;-78
2021/01/23 06:27:08;;;;;;;3.97;2.17;;;3.00;99.90;;;;;;4955037;29;20024;-78
2021/01/23 06:29:36;;;;;;;3.72;2.40;;;2.90;99.90;;;;;;4955442;29;20031;-78
2021/01/23 06:32:14;;;;;;;5.15;2.50;;;2.80;99.90;;;;;;4955348;29;20052;-78
2021/01/23 06:34:46;;;;;;;2.47;2.00;;;2.70;99.90;;;;;;4956174;29;20078;-78
2021/01/23 06:37:23;;;;;;;2.80;1.90;;;2.70;99.90;;;;;;4955186;28;20054;-78
2021/01/23 06:40:11;;;;;;;3.13;1.80;;;2.80;99.90;;;;;;4955637;29;20114;-78
2021/01/23 06:42:48;;;;;;;3.90;2.15;;;2.80;99.90;;;;;;4956522;28;20024;-78
2021/01/23 06:45:23;;;;;;;3.95;2.30;;;2.60;99.90;;;;;;4955137;29;20118;-78
2021/01/23 06:47:57;;;;;;;3.25;1.77;;;2.60;99.90;;;;;;4954959;29;20051;-78
2021/01/23 06:50:33;;;;;;;3.03;1.92;;;2.40;99.90;;;;;;4956677;28;20097;-78
2021/01/23 06:52:59;;;;;;;2.63;2.03;;;2.50;99.90;;;;;;4955892;29;20127;-78
2021/01/23 06:55:47;;;;;;;2.67;2.15;;;2.60;99.90;;;;;;4954933;29;20031;-78
2021/01/23 06:58:17;;;;;;;3.28;2.03;;;2.80;99.90;;;;;;4956113;28;20042;-78
2021/01/23 07:00:43;;;;;;;2.22;2.03;;;2.60;99.90;;;;;;4954927;29;20034;-78
2021/01/23 07:03:14;;;;;;;4.20;2.05;;;2.50;99.90;;;;;;4954860;29;20121;-78
2021/01/23 07:05:52;;;;;;;3.25;2.28;;;2.50;99.90;;;;;;4954837;29;20027;-78
2021/01/23 07:08:22;;;;;;;2.55;2.13;;;2.50;99.90;;;;;;4954765;29;20027;-78
2021/01/23 07:11:07;;;;;;;2.88;2.30;;;2.50;99.90;;;;;;4955967;28;20027;-78
2021/01/23 07:13:33;;;;;;;2.97;2.20;;;2.40;99.90;;;;;;4954706;29;20182;-77
2021/01/23 07:15:59;;;;;;;2.90;2.00;;;2.30;99.90;;;;;;4954679;29;20035;-78
2021/01/23 07:18:27;;;;;;;3.15;2.50;;;2.40;99.90;;;;;;4954561;29;20034;-78
2021/01/23 07:20:54;;;;;;;4.15;2.40;;;2.40;99.90;;;;;;4955779;28;20098;-79
2021/01/23 07:23:20;;;;;;;4.15;2.38;;;2.40;99.90;;;;;;4955803;28;20187;-78
2021/01/23 07:25:47;;;;;;;3.65;2.58;;;2.40;99.90;;;;;;4956045;28;20023;-78
2021/01/23 07:28:19;;;;;;;3.47;2.42;;;2.60;99.90;;;;;;4954444;29;20030;-78
2021/01/23 07:30:46;;;;;;;2.83;2.50;;;2.70;99.90;;;;;;4954470;29;20031;-79
2021/01/23 07:33:27;;;;;;;6.15;3.65;;;2.80;99.90;;;;;;4954378;29;20042;-78
2021/01/23 07:35:52;;;;;;;5.43;2.60;;;2.70;99.90;;;;;;4954311;28;20031;-78
2021/01/23 07:38:18;;;;;;;5.63;2.80;;;2.70;99.90;;;;;;4953364;28;20033;-78
2021/01/23 07:40:44;;;;;;;4.57;2.67;;;2.70;99.90;;;;;;4955542;28;20054;-80
2021/01/23 07:43:11;;;;;;;6.57;2.90;;;2.70;99.90;;;;;;4955536;28;20024;-78
2021/01/23 07:45:37;;;;;;;5.15;2.95;;;2.90;99.90;;;;;;4955774;28;20103;-80
2021/01/23 07:48:05;;;;;;;4.20;2.72;;;3.00;99.90;;;;;;4955365;28;20086;-77
2021/01/23 07:50:46;;;;;;;3.17;2.67;;;2.90;99.90;;;;;;4954143;29;20024;-79
2021/01/23 07:53:32;;;;;;;5.25;2.70;;;3.00;99.90;;;;;;4954192;29;20487;-78
2021/01/23 07:55:58;;;;;;;5.97;2.90;;;3.10;99.90;;;;;;4955348;28;20053;-80
2021/01/23 07:58:25;;;;;;;5.50;3.25;;;3.00;99.90;;;;;;4955316;28;20082;-80
2021/01/23 08:00:50;;;;;;;4.93;3.42;;;3.00;99.90;;;;;;4954094;29;20436;-80
2021/01/23 08:03:16;;;;;;;4.72;3.28;;;3.10;99.90;;;;;;4954059;29;20062;-79
2021/01/23 08:05:57;;;;;;;4.35;2.92;;;3.10;99.90;;;;;;4954032;29;20027;-80
2021/01/23 08:08:29;;;;;;;3.95;3.00;;;3.10;99.90;;;;;;4954046;29;20461;-78
2021/01/23 08:10:56;;;;;;;3.75;3.17;;;3.30;99.90;;;;;;4954002;29;20027;-80
2021/01/23 08:13:27;;;;;;;4.65;2.80;;;3.30;99.90;;;;;;4953921;29;20035;-78
2021/01/23 08:16:08;;;;;;;5.80;3.58;;;3.30;99.90;;;;;;4954007;29;20122;-78
2021/01/23 08:18:33;;;;;;;4.80;3.30;;;3.30;99.90;;;;;;4953964;29;20399;-80
2021/01/23 08:20:59;;;;;;;4.22;2.88;;;3.30;99.90;;;;;;4953944;29;20030;-78
2021/01/23 08:23:34;;;;;;;4.25;3.33;;;3.30;99.90;;;;;;4953953;29;20446;-78
2021/01/23 08:26:00;;;;;;;4.28;2.70;;;3.40;99.90;;;;;;4953907;29;20046;-78
2021/01/23 08:28:40;;;;;;;3.85;3.13;;;3.40;99.90;;;;;;4953888;29;20027;-80
2021/01/23 08:31:20;;;;;;;5.03;2.92;;;3.50;99.90;;;;;;4953796;29;20031;-80
2021/01/23 08:33:52;;;;;;;4.43;2.85;;;3.40;99.90;;;;;;4955374;28;20037;-80
2021/01/23 08:36:18;;;;;;;3.17;2.30;;;3.50;99.90;;;;;;4953827;28;20502;-80
2021/01/23 08:38:44;;;;;;;4.70;2.75;;;3.40;99.90;;;;;;4954976;28;20066;-80
2021/01/23 08:41:10;;;;;;;5.60;2.55;;;3.40;99.90;;;;;;4953752;29;20055;-80
2021/01/23 08:43:36;;;;;;;3.13;2.50;;;3.40;99.90;;;;;;4953722;29;20027;-80
2021/01/23 08:46:02;;;;;;;7.47;2.67;;;3.50;99.90;;;;;;4953755;29;20387;-79
2021/01/23 08:48:27;;;;;;;4.25;3.30;;;3.50;99.90;;;;;;4955508;28;20051;-80
2021/01/23 08:50:53;;;;;;;18.25;9.00;;;3.50;99.90;;;;;;4958446;28;20035;-80
2021/01/23 08:53:19;;;;;;;22.70;11.57;;;3.50;99.90;;;;;;4957287;29;20027;-80
2021/01/23 08:55:45;;;;;;;9.50;5.90;;;3.70;99.90;;;;;;4957216;29;20491;-80
2021/01/23 08:58:10;;;;;;;9.43;4.38;;;3.70;99.90;;;;;;4958303;28;20111;-80
2021/01/23 09:00:36;;;;;;;10.40;4.75;;;3.60;99.90;;;;;;4958394;28;20054;-80
2021/01/23 09:03:02;;;;;;;10.18;5.28;;;3.50;99.90;;;;;;4957022;29;20131;-80
2021/01/23 09:05:28;;;;;;;8.77;5.72;;;3.50;99.90;;;;;;4958258;28;20082;-80
2021/01/23 09:07:54;;;;;;;12.77;6.47;;;3.40;99.90;;;;;;4956946;29;20132;-80
2021/01/23 09:10:20;;;;;;;10.23;6.53;;;3.30;99.90;;;;;;4958152;28;20631;-80
2021/01/23 09:12:47;;;;;;;7.63;4.22;;;3.30;99.90;;;;;;4956864;29;20023;-81
2021/01/23 09:15:14;;;;;;;9.13;4.40;;;3.40;99.90;;;;;;4958077;28;20038;-80
2021/01/23 09:17:39;;;;;;;8.68;5.38;;;3.30;99.90;;;;;;4957891;28;20435;-79
2021/01/23 09:20:07;;;;;;;10.15;5.07;;;3.30;99.90;;;;;;4958293;28;20019;-80
2021/01/23 09:22:33;;;;;;;9.48;5.20;;;3.30;99.90;;;;;;4957903;28;20030;-80
2021/01/23 09:24:59;;;;;;;10.30;6.50;;;3.40;99.90;;;;;;4956598;29;20109;-80
2021/01/23 09:27:26;;;;;;;8.93;5.07;;;3.40;99.90;;;;;;4956487;29;20023;-80
2021/01/23 09:29:52;;;;;;;6.50;4.60;;;3.40;99.90;;;;;;4957835;28;20376;-81
2021/01/23 09:32:18;;;;;;;11.75;5.32;;;3.40;99.90;;;;;;4956492;29;20074;-81
2021/01/23 09:34:44;;;;;;;8.60;4.65;;;3.50;99.90;;;;;;4956399;29;20023;-80
2021/01/23 09:37:10;;;;;;;8.25;4.95;;;3.50;99.90;;;;;;4956295;28;20038;-81
2021/01/23 09:39:35;;;;;;;6.90;4.20;;;3.60;99.90;;;;;;4956305;29;20038;-81
2021/01/23 09:42:01;;;;;;;6.85;4.30;;;3.50;99.90;;;;;;4956215;29;20162;-81
2021/01/23 09:44:27;;;;;;;6.68;4.65;;;3.50;99.90;;;;;;4956264;29;20491;-80
2021/01/23 09:46:54;;;;;;;8.00;4.65;;;3.50;99.90;;;;;;4956055;29;20040;-80
2021/01/23 09:49:20;;;;;;;8.95;5.60;;;3.50;99.90;;;;;;4956222;29;20066;-80
2021/01/23 09:51:47;;;;;;;14.18;7.07;;;3.50;99.90;;;;;;4956154;29;20059;-80
2021/01/23 09:54:12;;;;;;;9.43;4.53;;;3.50;99.90;;;;;;4956105;29;20031;-81
2021/01/23 09:56:38;;;;;;;8.50;6.28;;;3.50;99.90;;;;;;4956056;29;20383;-81
2021/01/23 09:59:04;;;;;;;6.60;4.97;;;3.60;99.90;;;;;;4955904;29;20059;-80
2021/01/23 10:01:29;;;;;;;9.50;4.95;;;3.50;99.90;;;;;;4955022;28;20028;-80
2021/01/23 10:03:56;;;;;;;9.95;7.10;;;3.40;99.90;;;;;;4955888;29;20027;-80
2021/01/23 10:06:22;;;;;;;9.05;5.95;;;3.70;99.90;;;;;;4955879;29;20029;-80
2021/01/23 10:08:48;;;;;;;7.65;5.32;;;3.80;99.90;;;;;;4955841;29;20031;-80
2021/01/23 10:11:13;;;;;;;10.23;6.88;;;4.10;99.90;;;;;;4955788;29;20037;-80
2021/01/23 10:13:40;;;;;;;8.73;5.15;;;4.10;99.90;;;;;;4955791;29;20118;-80
2021/01/23 10:16:06;;;;;;;14.18;7.50;;;4.20;99.90;;;;;;4955698;29;20083;-81
2021/01/23 10:18:36;;;;;;;6.53;4.35;;;4.20;99.90;;;;;;4955608;29;20031;-81
2021/01/23 10:21:04;;;;;;;7.03;4.57;;;4.20;99.90;;;;;;4940213;29;20055;-80
2021/01/23 10:23:29;;;;;;;7.35;4.97;;;4.30;99.90;;;;;;4956843;28;20102;-80
2021/01/23 10:25:55;;;;;;;6.15;4.53;;;4.40;99.90;;;;;;4955518;29;20118;-80
2021/01/23 10:28:21;;;;;;;6.82;5.78;;;4.50;99.90;;;;;;4955432;29;20110;-81
2021/01/23 10:30:46;;;;;;;10.35;4.75;;;4.60;99.90;;;;;;4955430;29;20086;-80
2021/01/23 10:33:12;;;;;;;6.22;3.88;;;4.80;99.90;;;;;;4955375;29;20042;-80
2021/01/23 10:35:38;;;;;;;9.15;4.45;;;4.90;99.90;;;;;;4955350;29;20054;-80
2021/01/23 10:38:03;;;;;;;8.65;4.72;;;5.10;99.90;;;;;;4955129;28;20497;-80
2021/01/23 10:40:29;;;;;;;5.45;4.22;;;5.40;99.90;;;;;;4955293;29;20475;-80
2021/01/23 10:42:55;;;;;;;5.43;3.13;;;5.30;99.90;;;;;;4955221;29;20175;-79
2021/01/23 10:45:21;;;;;;;5.93;4.53;;;5.20;99.90;;;;;;4955156;29;20035;-79
2021/01/23 10:47:46;;;;;;;5.70;3.50;;;5.20;99.90;;;;;;4954940;29;20047;-79
2021/01/23 10:50:12;;;;;;;5.80;3.40;;;5.40;99.90;;;;;;4955115;29;20046;-79
2021/01/23 10:52:38;;;;;;;7.75;3.85;;;5.40;99.90;;;;;;4955028;29;20031;-79
2021/01/23 10:55:05;;;;;;;5.53;3.67;;;5.40;99.90;;;;;;4954925;29;20030;-76
2021/01/23 10:57:30;;;;;;;4.45;3.72;;;5.20;99.90;;;;;;4954769;29;20440;-79
2021/01/23 10:59:56;;;;;;;5.43;3.70;;;5.40;99.90;;;;;;4955042;29;20114;-79
2021/01/23 11:02:22;;;;;;;4.78;3.10;;;5.70;99.90;;;;;;4954871;29;20487;-79
2021/01/23 11:04:47;;;;;;;9.35;4.20;;;5.80;99.90;;;;;;4956360;28;20489;-78
2021/01/23 11:07:13;;;;;;;6.40;3.80;;;5.80;99.90;;;;;;4954726;29;20023;-79
2021/01/23 11:09:40;;;;;;;4.50;2.90;;;5.90;99.90;;;;;;4954762;29;20031;-79
2021/01/23 11:12:06;;;;;;;4.57;2.78;;;5.90;99.90;;;;;;4954508;28;20110;-79
2021/01/23 11:14:33;;;;;;;4.22;3.40;;;6.00;99.90;;;;;;4954610;29;20031;-79
2021/01/23 11:17:00;;;;;;;5.35;2.78;;;6.10;99.90;;;;;;4955915;28;20034;-79
2021/01/23 11:19:26;;;;;;;5.68;2.78;;;6.50;99.90;;;;;;4955820;28;20400;-79
2021/01/23 11:21:52;;;;;;;4.40;2.70;;;6.90;99.90;;;;;;4954603;29;20035;-79
2021/01/23 11:24:19;;;;;;;3.90;2.88;;;7.10;99.90;;;;;;4954535;29;20031;-79
2021/01/23 11:26:45;;;;;;;7.53;3.17;;;6.70;99.90;;;;;;4954517;29;20078;-79
2021/01/23 11:29:10;;;;;;;4.13;2.75;;;6.90;99.90;;;;;;4956008;28;20391;-79
2021/01/23 11:31:36;;;;;;;4.03;2.78;;;7.30;99.90;;;;;;4954440;29;20487;-78
2021/01/23 11:34:02;;;;;;;5.78;2.88;;;7.00;99.90;;;;;;4954403;29;20510;-79
2021/01/23 11:36:29;;;;;;;5.72;2.63;;;7.40;99.90;;;;;;4955581;28;20035;-79
2021/01/23 11:38:56;;;;;;;4.68;2.80;;;7.00;99.90;;;;;;4954318;29;20395;-79
2021/01/23 11:41:21;;;;;;;9.25;3.05;;;7.10;99.90;;;;;;4955836;28;20019;-79
2021/01/23 11:43:47;;;;;;;3.42;2.47;;;6.90;99.90;;;;;;4955536;28;20090;-79
2021/01/23 11:46:13;;;;;;;5.82;2.95;;;6.80;99.90;;;;;;4954289;29;20027;-79
2021/01/23 11:48:39;;;;;;;5.78;2.95;;;6.10;99.90;;;;;;4954064;29;20051;-79
2021/01/23 11:51:04;;;;;;;6.32;3.13;;;5.50;99.90;;;;;;4954188;29;20030;-79
2021/01/23 11:53:30;;;;;;;6.05;2.80;;;5.70;99.90;;;;;;4954205;29;20119;-79
2021/01/23 11:55:56;;;;;;;4.80;2.65;;;6.00;99.90;;;;;;4954170;29;20023;-79
2021/01/23 11:58:21;;;;;;;7.30;2.60;;;6.30;99.90;;;;;;4955328;28;20383;-79
2021/01/23 12:00:47;;;;;;;8.30;2.55;;;6.50;99.90;;;;;;4955618;28;20023;-79
2021/01/23 12:03:13;;;;;;;3.80;2.72;;;6.40;99.90;;;;;;4954080;29;20125;-79
2021/01/23 12:05:39;;;;;;;9.95;2.72;;;6.50;99.90;;;;;;4954067;29;20051;-79
2021/01/23 12:08:05;;;;;;;4.10;2.35;;;6.70;99.90;;;;;;4954029;29;20038;-79
2021/01/23 12:10:30;;;;;;;5.32;2.50;;;6.80;99.90;;;;;;4954043;29;20027;-79
2021/01/23 12:12:56;;;;;;;6.13;2.83;;;6.90;99.90;;;;;;4955416;28;20039;-80
2021/01/23 12:15:22;;;;;;;5.90;2.03;;;7.00;99.90;;;;;;4953808;29;20035;-79
2021/01/23 12:17:49;;;;;;;5.40;2.42;;;6.80;99.90;;;;;;4955145;28;20034;-79
2021/01/23 12:20:15;;;;;;;6.32;2.85;;;6.90;99.90;;;;;;4955097;28;20103;-79
2021/01/23 12:22:42;;;;;;;5.45;2.65;;;7.00;99.90;;;;;;4955208;28;20027;-79
2021/01/23 12:25:09;;;;;;;5.50;2.42;;;6.90;99.90;;;;;;4958828;28;20019;-79
2021/01/23 12:27:35;;;;;;;7.50;2.15;;;6.30;99.90;;;;;;4957636;29;20035;-80
2021/01/23 12:30:03;;;;;;;6.57;2.60;;;6.40;99.90;;;;;;4957635;29;20029;-78
2021/01/23 12:32:29;;;;;;;9.10;3.60;;;6.60;99.90;;;;;;4958787;28;20051;-79
2021/01/23 12:34:54;;;;;;;5.22;2.70;;;6.60;99.90;;;;;;4957564;29;20055;-78
2021/01/23 12:37:20;;;;;;;5.20;2.13;;;6.40;99.90;;;;;;4958660;28;20415;-78
2021/01/23 12:39:46;;;;;;;6.40;2.17;;;6.30;99.90;;;;;;4957693;29;20027;-79
2021/01/23 12:42:11;;;;;;;7.25;2.28;;;6.50;99.90;;;;;;4957435;29;20054;-79
2021/01/23 12:44:37;;;;;;;10.70;2.00;;;6.90;99.90;;;;;;4957322;29;20027;-78
2021/01/23 12:47:02;;;;;;;9.18;2.38;;;6.40;99.90;;;;;;4957080;29;20439;-80
2021/01/23 12:49:28;;;;;;;6.25;2.33;;;6.80;99.90;;;;;;4957311;29;20058;-79
2021/01/23 12:51:54;;;;;;;7.80;2.45;;;7.50;99.90;;;;;;4958535;28;20030;-79
2021/01/23 12:54:20;;;;;;;8.38;2.17;;;7.70;99.90;;;;;;4957250;29;20110;-79
2021/01/23 12:56:45;;;;;;;7.00;2.33;;;8.00;99.90;;;;;;4957240;29;20502;-79
2021/01/23 12:59:11;;;;;;;9.88;2.72;;;8.90;99.90;;;;;;4958349;28;20032;-79
2021/01/23 13:01:40;;;;;;;8.73;2.10;;;9.70;99.90;;;;;;4958609;28;20066;-79